createdAt,value
2019-02-25T00:04:22.915Z,98.50
2019-02-25T00:07:46.615Z,98.70
2019-02-25T00:18:59.297Z,99.20
2019-02-25T00:21:45.377Z,99.50
2019-02-25T00:27:32.674Z,99.40
2019-02-25T00:31:06.267Z,99.50
2019-02-25T00:34:01.217Z,99.60
2019-02-25T00:42:47.509Z,99.80
2019-02-25T00:45:17.855Z,99.90
2019-02-25T00:47:47.328Z,99.80
2019-02-25T00:53:15.489Z,99.90
2019-02-25T00:56:22.784Z,99.90
2019-02-25T00:58:52.170Z,99.90
2019-02-25T01:03:52.051Z,99.90
2019-02-25T01:06:21.629Z,99.90
2019-02-25T01:08:51.108Z,99.90
2019-02-25T01:11:21.788Z,99.90
2019-02-25T01:13:51.316Z,99.90
2019-02-25T01:17:32.733Z,99.90
2019-02-25T01:20:02.195Z,99.90
2019-02-25T01:22:33.854Z,99.90
2019-02-25T01:25:24.005Z,99.90
2019-02-25T01:28:16.871Z,99.90
2019-02-25T01:30:46.190Z,99.90
2019-02-25T01:33:15.635Z,99.90
2019-02-25T01:36:50.517Z,99.90
2019-02-25T01:43:30.426Z,99.90
2019-02-25T01:45:59.976Z,99.90
2019-02-25T01:51:12.001Z,99.90
2019-02-25T01:53:41.548Z,99.90
2019-02-25T01:56:18.353Z,99.90
2019-02-25T01:58:47.814Z,99.90
2019-02-25T02:01:51.283Z,99.90
2019-02-25T02:07:10.885Z,99.90
2019-02-25T02:09:40.507Z,99.90
2019-02-25T02:12:09.981Z,99.90
2019-02-25T02:14:39.516Z,99.90
2019-02-25T02:18:07.797Z,99.90
2019-02-25T02:20:37.332Z,99.90
2019-02-25T02:23:06.913Z,99.90
2019-02-25T02:25:36.532Z,99.90
2019-02-25T02:28:07.008Z,99.90
2019-02-25T02:33:18.472Z,99.90
2019-02-25T02:36:11.687Z,99.90
2019-02-25T02:38:41.857Z,99.90
2019-02-25T02:44:18.740Z,99.90
2019-02-25T02:47:24.942Z,99.90
2019-02-25T02:50:24.714Z,99.90
2019-02-25T02:55:49.366Z,99.90
2019-02-25T02:58:18.685Z,99.90
2019-02-25T03:06:12.145Z,99.90
2019-02-25T03:08:47.559Z,99.90
2019-02-25T03:11:19.168Z,99.90
2019-02-25T03:13:48.933Z,99.90
2019-02-25T03:16:18.261Z,99.90
2019-02-25T03:18:47.711Z,99.90
2019-02-25T03:21:46.496Z,99.90
2019-02-25T03:24:16.287Z,99.90
2019-02-25T03:26:48.783Z,99.90
2019-02-25T03:32:30.723Z,99.90
2019-02-25T03:35:18.280Z,99.90
2019-02-25T03:37:48.125Z,99.90
2019-02-25T03:40:46.058Z,99.90
2019-02-25T03:46:08.357Z,99.90
2019-02-25T03:52:09.909Z,99.90
2019-02-25T03:55:16.904Z,99.90
2019-02-25T03:57:54.427Z,99.90
2019-02-25T04:00:24.057Z,99.90
2019-02-25T04:03:20.224Z,99.90
2019-02-25T04:05:57.829Z,99.90
2019-02-25T04:08:27.225Z,99.90
2019-02-25T04:10:56.845Z,99.90
2019-02-25T04:13:49.493Z,99.90
2019-02-25T04:16:18.812Z,99.90
2019-02-25T04:18:48.128Z,99.90
2019-02-25T04:30:10.045Z,99.90
2019-02-25T04:33:46.089Z,99.90
2019-02-25T04:36:47.203Z,99.90
2019-02-25T04:41:59.995Z,99.90
2019-02-25T04:44:29.462Z,99.90
2019-02-25T04:49:40.059Z,99.90
2019-02-25T04:52:19.803Z,99.90
2019-02-25T04:54:49.647Z,99.90
2019-02-25T04:57:19.333Z,99.90
2019-02-25T04:59:48.694Z,99.90
2019-02-25T05:03:19.181Z,99.90
2019-02-25T05:08:50.615Z,99.90
2019-02-25T05:11:45.136Z,99.90
2019-02-25T05:14:22.815Z,99.90
2019-02-25T05:16:52.230Z,99.90
2019-02-25T05:19:28.280Z,99.90
2019-02-25T05:21:57.690Z,99.90
2019-02-25T05:27:17.520Z,99.90
2019-02-25T05:29:48.635Z,99.90
2019-02-25T05:32:18.341Z,99.90
2019-02-25T05:34:47.768Z,99.90
2019-02-25T05:37:17.441Z,99.90
2019-02-25T05:39:46.572Z,99.90
2019-02-25T05:42:18.961Z,99.90
2019-02-25T05:44:48.232Z,99.90
2019-02-25T05:47:17.718Z,99.90
2019-02-25T05:49:47.657Z,99.90
2019-02-25T05:52:46.905Z,99.90
2019-02-25T05:55:16.615Z,99.90
2019-02-25T05:57:46.116Z,99.90
2019-02-25T06:00:19.585Z,99.90
2019-02-25T06:02:48.696Z,99.90
2019-02-25T06:05:17.992Z,99.90
2019-02-25T06:07:47.261Z,99.90
2019-02-25T06:10:16.506Z,99.90
2019-02-25T06:12:45.810Z,99.90
2019-02-25T06:15:14.778Z,99.90
2019-02-25T06:17:44.101Z,99.90
2019-02-25T06:20:13.756Z,99.90
2019-02-25T06:22:43.104Z,99.90
2019-02-25T06:25:12.680Z,99.90
2019-02-25T06:27:46.809Z,99.90
2019-02-25T06:32:49.128Z,99.90
2019-02-25T06:35:21.046Z,99.90
2019-02-25T06:37:52.234Z,99.90
2019-02-25T06:43:09.391Z,99.90
2019-02-25T06:56:13.234Z,99.90
2019-02-25T06:58:44.168Z,99.90
2019-02-25T07:07:03.204Z,99.90
2019-02-25T07:09:53.389Z,99.90
2019-02-25T07:12:35.930Z,99.90
2019-02-25T07:15:30.454Z,99.90
2019-02-25T07:20:54.979Z,99.90
2019-02-25T07:23:34.066Z,99.90
2019-02-25T07:26:25.198Z,99.90
2019-02-25T07:31:49.606Z,99.90
2019-02-25T07:37:43.388Z,99.90
2019-02-25T07:41:04.770Z,99.90
2019-02-25T07:43:51.675Z,99.90
2019-02-25T07:49:25.036Z,99.90
2019-02-25T07:52:11.369Z,99.90
2019-02-25T07:55:08.778Z,99.90
2019-02-25T07:57:44.158Z,99.90
2019-02-25T08:03:36.936Z,99.90
2019-02-25T08:12:01.293Z,99.90
2019-02-25T08:14:46.017Z,99.90
2019-02-25T08:17:34.456Z,99.90
2019-02-25T08:20:21.295Z,99.90
2019-02-25T08:23:06.469Z,99.90
2019-02-25T08:25:53.603Z,99.90
2019-02-25T08:31:34.732Z,99.90
2019-02-25T08:34:18.749Z,99.90
2019-02-25T08:37:21.821Z,99.90
2019-02-25T08:40:02.786Z,99.90
2019-02-25T08:42:51.998Z,99.90
2019-02-25T08:45:28.058Z,99.90
2019-02-25T08:51:17.803Z,99.90
2019-02-25T08:53:43.270Z,99.90
2019-02-25T08:58:50.547Z,99.90
2019-02-25T09:01:20.366Z,99.90
2019-02-25T09:04:11.266Z,99.90
2019-02-25T09:06:51.465Z,99.90
2019-02-25T09:09:17.051Z,99.90
2019-02-25T09:15:11.037Z,99.90
2019-02-25T09:17:45.168Z,99.90
2019-02-25T09:20:15.769Z,99.90
2019-02-25T09:22:47.523Z,98.50
2019-02-25T09:25:20.460Z,98.10
2019-02-25T09:27:50.038Z,97.90
2019-02-25T09:30:19.593Z,97.70
2019-02-25T09:32:49.201Z,97.50
2019-02-25T09:35:18.934Z,96.90
2019-02-25T09:37:48.601Z,96.10
2019-02-25T09:40:18.259Z,95.90
2019-02-25T09:42:47.864Z,95.40
2019-02-25T09:45:20.276Z,95.10
2019-02-25T09:47:49.879Z,94.30
2019-02-25T09:50:19.432Z,94.30
2019-02-25T09:52:49.075Z,93.40
2019-02-25T09:55:18.772Z,93.30
2019-02-25T09:57:53.899Z,92.90
2019-02-25T10:03:17.029Z,91.20
2019-02-25T10:05:46.578Z,91.20
2019-02-25T10:08:16.126Z,91.10
2019-02-25T10:10:45.526Z,91.00
2019-02-25T10:13:15.727Z,90.00
2019-02-25T10:15:45.348Z,88.70
2019-02-25T10:18:15.301Z,87.10
2019-02-25T10:20:45.254Z,85.60
2019-02-25T10:23:14.781Z,87.00
2019-02-25T10:25:44.324Z,85.70
2019-02-25T10:28:16.874Z,83.20
2019-02-25T10:30:52.570Z,85.60
2019-02-25T10:33:17.880Z,86.20
2019-02-25T10:36:16.868Z,84.50
2019-02-25T10:38:46.860Z,83.90
2019-02-25T10:41:17.204Z,80.70
2019-02-25T10:43:49.842Z,78.40
2019-02-25T10:46:20.897Z,78.40
2019-02-25T10:48:54.214Z,80.30
2019-02-25T10:51:21.520Z,78.80
2019-02-25T10:53:54.454Z,78.60
2019-02-25T10:56:37.737Z,80.60
2019-02-25T10:59:08.244Z,77.30
2019-02-25T11:01:39.271Z,76.00
2019-02-25T11:04:09.359Z,73.60
2019-02-25T11:06:38.871Z,73.40
2019-02-25T11:09:45.969Z,72.20
2019-02-25T11:12:15.484Z,71.40
2019-02-25T11:14:45.302Z,70.00
2019-02-25T11:17:18.199Z,69.50
2019-02-25T11:19:50.174Z,69.70
2019-02-25T11:25:12.044Z,71.70
2019-02-25T11:27:42.549Z,71.90
2019-02-25T11:30:14.225Z,72.40
2019-02-25T11:32:43.707Z,72.50
2019-02-25T11:35:14.134Z,68.40
2019-02-25T11:37:43.670Z,67.00
2019-02-25T11:40:13.041Z,65.40
2019-02-25T11:42:42.322Z,65.50
2019-02-25T11:45:12.193Z,63.10
2019-02-25T11:47:41.560Z,63.10
2019-02-25T11:50:13.058Z,63.00
2019-02-25T11:52:42.718Z,64.90
2019-02-25T11:55:16.025Z,63.30
2019-02-25T11:57:49.368Z,60.40
2019-02-25T12:00:21.699Z,60.60
2019-02-25T12:02:53.014Z,59.70
2019-02-25T12:05:22.660Z,59.80
2019-02-25T12:08:04.486Z,60.30
2019-02-25T12:10:37.699Z,58.80
2019-02-25T12:13:06.896Z,58.20
2019-02-25T12:15:37.275Z,58.10
2019-02-25T12:18:06.886Z,55.20
2019-02-25T12:20:36.459Z,55.70
2019-02-25T12:23:06.070Z,55.70
2019-02-25T12:25:35.512Z,53.80
2019-02-25T12:28:05.148Z,53.20
2019-02-25T12:30:34.701Z,55.70
2019-02-25T12:33:04.076Z,51.40
2019-02-25T12:35:35.142Z,52.20
2019-02-25T12:38:04.472Z,53.20
2019-02-25T12:40:34.003Z,55.50
2019-02-25T12:43:03.420Z,55.50
2019-02-25T12:45:32.784Z,50.50
2019-02-25T12:48:02.246Z,49.70
2019-02-25T12:50:31.642Z,52.20
2019-02-25T12:53:01.445Z,51.20
2019-02-25T12:55:30.885Z,47.50
2019-02-25T12:58:00.252Z,46.10
2019-02-25T13:00:29.777Z,44.70
2019-02-25T13:03:00.515Z,45.90
2019-02-25T13:05:29.929Z,46.90
2019-02-25T13:07:59.295Z,47.80
2019-02-25T13:10:28.764Z,45.90
2019-02-25T13:13:21.522Z,46.60
2019-02-25T13:15:57.583Z,45.40
2019-02-25T13:18:29.846Z,46.30
2019-02-25T13:21:01.644Z,50.90
2019-02-25T13:23:34.955Z,51.70
2019-02-25T13:26:07.520Z,52.20
2019-02-25T13:28:39.514Z,49.50
2019-02-25T13:31:36.010Z,47.30
2019-02-25T13:38:04.523Z,48.90
2019-02-25T13:41:02.125Z,48.10
2019-02-25T13:44:03.116Z,47.50
2019-02-25T13:46:14.658Z,49.30
2019-02-25T13:48:51.618Z,46.80
2019-02-25T13:51:43.608Z,46.30
2019-02-25T13:54:32.793Z,46.70
2019-02-25T13:59:53.307Z,45.60
2019-02-25T14:02:23.707Z,45.60
2019-02-25T14:04:53.244Z,47.40
2019-02-25T14:07:22.623Z,46.40
2019-02-25T14:09:51.775Z,47.20
2019-02-25T14:12:20.849Z,44.60
2019-02-25T14:14:50.282Z,42.40
2019-02-25T14:17:19.947Z,43.50
2019-02-25T14:19:49.052Z,42.40
2019-02-25T14:22:18.319Z,42.90
2019-02-25T14:24:47.577Z,44.20
2019-02-25T14:27:16.568Z,42.00
2019-02-25T14:29:48.123Z,42.60
2019-02-25T14:32:17.132Z,41.90
2019-02-25T14:34:46.568Z,41.90
2019-02-25T14:37:16.259Z,41.70
2019-02-25T14:39:49.396Z,42.40
2019-02-25T14:42:16.653Z,44.00
2019-02-25T14:44:50.012Z,42.10
2019-02-25T14:47:22.275Z,43.70
2019-02-25T14:49:49.034Z,42.90
2019-02-25T14:52:19.390Z,44.50
2019-02-25T14:54:49.101Z,43.30
2019-02-25T14:57:20.345Z,43.20
2019-02-25T14:59:49.207Z,43.00
2019-02-25T15:02:18.521Z,43.60
2019-02-25T15:04:47.655Z,42.50
2019-02-25T15:07:16.899Z,43.60
2019-02-25T15:09:46.190Z,43.60
2019-02-25T15:12:15.462Z,43.10
2019-02-25T15:14:44.740Z,43.40
2019-02-25T15:17:14.897Z,42.90
2019-02-25T15:19:44.182Z,44.00
2019-02-25T15:22:13.747Z,44.70
2019-02-25T15:25:07.976Z,45.20
2019-02-25T15:27:37.505Z,45.30
2019-02-25T15:30:10.099Z,44.10
2019-02-25T15:32:54.810Z,43.80
2019-02-25T15:35:14.133Z,44.70
2019-02-25T15:37:44.824Z,43.10
2019-02-25T15:43:15.148Z,43.00
2019-02-25T15:45:44.497Z,44.60
2019-02-25T15:48:16.278Z,44.90
2019-02-25T15:51:01.338Z,45.80
2019-02-25T15:53:31.172Z,45.00
2019-02-25T15:56:01.429Z,46.00
2019-02-25T15:58:33.627Z,46.10
2019-02-25T16:01:36.218Z,46.50
2019-02-25T16:04:07.089Z,46.50
2019-02-25T16:06:40.270Z,46.70
2019-02-25T16:09:19.266Z,47.00
2019-02-25T16:11:47.454Z,47.50
2019-02-25T16:14:27.658Z,47.90
2019-02-25T16:16:58.157Z,48.00
2019-02-25T16:19:47.990Z,49.90
2019-02-25T16:22:29.586Z,49.90
2019-02-25T16:25:00.462Z,50.30
2019-02-25T16:30:49.164Z,53.00
2019-02-25T16:33:23.748Z,52.70
2019-02-25T16:35:53.455Z,51.90
2019-02-25T16:38:25.096Z,53.80
2019-02-25T16:40:56.642Z,54.50
2019-02-25T16:43:27.044Z,55.50
2019-02-25T16:45:56.496Z,55.90
2019-02-25T16:48:27.730Z,56.60
2019-02-25T16:50:57.360Z,57.40
2019-02-25T16:53:26.895Z,57.50
2019-02-25T16:55:57.302Z,57.50
2019-02-25T16:58:27.623Z,58.30
2019-02-25T17:01:01.181Z,58.40
2019-02-25T17:03:29.272Z,58.60
2019-02-25T17:05:58.793Z,59.40
2019-02-25T17:08:30.375Z,60.00
2019-02-25T17:11:00.118Z,59.80
2019-02-25T17:13:33.060Z,59.70
2019-02-25T17:18:56.390Z,60.20
2019-02-25T17:21:26.577Z,60.80
2019-02-25T17:23:58.134Z,61.10
2019-02-25T17:26:33.197Z,61.30
2019-02-25T17:29:23.132Z,61.60
2019-02-25T17:31:54.494Z,62.60
2019-02-25T17:34:24.971Z,62.90
2019-02-25T17:36:55.542Z,62.80
2019-02-25T17:39:24.996Z,63.50
2019-02-25T17:41:54.732Z,63.20
2019-02-25T17:44:27.895Z,63.40
2019-02-25T17:46:55.343Z,64.20
2019-02-25T17:49:25.899Z,64.90
2019-02-25T17:51:57.309Z,65.20
2019-02-25T17:54:26.356Z,65.40
2019-02-25T17:56:55.912Z,65.60
2019-02-25T17:59:26.879Z,66.20
2019-02-25T18:01:56.308Z,66.60
2019-02-25T18:04:26.535Z,66.60
2019-02-25T18:06:56.499Z,67.10
2019-02-25T18:09:25.815Z,67.60
2019-02-25T18:11:55.099Z,68.30
2019-02-25T18:14:24.337Z,68.80
2019-02-25T18:16:53.599Z,69.60
2019-02-25T18:19:24.812Z,69.60
2019-02-25T18:21:58.214Z,69.50
2019-02-25T18:24:27.506Z,69.70
2019-02-25T18:26:56.434Z,69.90
2019-02-25T18:29:26.297Z,69.80
2019-02-25T18:31:55.860Z,70.00
2019-02-25T18:34:25.302Z,70.10
2019-02-25T18:36:55.499Z,70.40
2019-02-25T18:39:25.280Z,70.40
2019-02-25T18:41:56.952Z,70.50
2019-02-25T18:44:27.360Z,70.50
2019-02-25T18:46:56.560Z,70.80
2019-02-25T18:49:27.814Z,71.00
2019-02-25T18:51:57.167Z,71.30
2019-02-25T18:54:26.360Z,71.30
2019-02-25T18:57:01.119Z,71.30
2019-02-25T18:59:31.044Z,71.90
2019-02-25T19:02:00.245Z,72.30
2019-02-25T19:04:29.791Z,73.10
2019-02-25T19:06:59.763Z,73.30
2019-02-25T19:09:29.903Z,73.60
2019-02-25T19:11:59.101Z,73.80
2019-02-25T19:14:29.372Z,74.00
2019-02-25T19:16:59.701Z,74.20
2019-02-25T19:19:31.412Z,74.60
2019-02-25T19:22:01.511Z,74.70
2019-02-25T19:24:33.257Z,75.00
2019-02-25T19:27:03.889Z,75.50
2019-02-25T19:29:34.075Z,75.70
2019-02-25T19:32:03.344Z,75.90
2019-02-25T19:34:32.575Z,76.00
2019-02-25T19:37:02.849Z,76.30
2019-02-25T19:39:33.650Z,76.40
2019-02-25T19:42:03.973Z,77.10
2019-02-25T19:44:34.360Z,77.50
2019-02-25T19:47:04.308Z,77.80
2019-02-25T19:49:34.155Z,78.30
2019-02-25T19:52:04.859Z,78.80
2019-02-25T19:54:38.254Z,78.90
2019-02-25T19:57:32.177Z,78.90
2019-02-25T20:00:02.942Z,78.60
2019-02-25T20:02:34.686Z,79.20
2019-02-25T20:05:07.146Z,79.80
2019-02-25T20:07:35.879Z,79.80
2019-02-25T20:10:05.738Z,79.90
2019-02-25T20:12:35.683Z,80.60
2019-02-25T20:15:09.108Z,80.70
2019-02-25T20:17:38.010Z,80.80
2019-02-25T20:20:10.203Z,80.90
2019-02-25T20:22:38.730Z,81.20
2019-02-25T20:25:10.792Z,81.60
2019-02-25T20:27:41.069Z,81.90
2019-02-25T20:30:12.571Z,82.40
2019-02-25T20:32:42.873Z,82.40
2019-02-25T20:35:13.982Z,83.00
2019-02-25T20:37:48.759Z,84.10
2019-02-25T20:40:19.153Z,84.10
2019-02-25T20:42:49.105Z,83.60
2019-02-25T20:45:23.009Z,84.00
2019-02-25T20:47:52.247Z,84.30
2019-02-25T20:50:22.188Z,84.70
2019-02-25T20:52:51.396Z,84.70
2019-02-25T20:55:20.784Z,84.90
2019-02-25T20:57:50.209Z,85.70
2019-02-25T21:00:20.146Z,86.70
2019-02-25T21:03:12.079Z,86.80
2019-02-25T21:05:39.833Z,86.60
2019-02-25T21:08:08.925Z,86.80
2019-02-25T21:10:38.246Z,86.90
2019-02-25T21:13:07.430Z,86.90
2019-02-25T21:15:38.400Z,86.60
2019-02-25T21:18:07.920Z,87.00
2019-02-25T21:20:37.474Z,87.40
2019-02-25T21:23:08.515Z,87.30
2019-02-25T21:25:38.680Z,87.40
2019-02-25T21:28:11.341Z,87.70
2019-02-25T21:30:43.233Z,88.10
2019-02-25T21:33:15.324Z,88.60
2019-02-25T21:35:43.403Z,89.10
2019-02-25T21:38:13.087Z,89.20
2019-02-25T21:40:43.967Z,90.00
2019-02-25T21:43:16.315Z,90.10
2019-02-25T21:45:47.984Z,90.10
2019-02-25T21:48:16.946Z,90.10
2019-02-25T21:50:46.623Z,90.20
2019-02-25T21:53:16.581Z,90.20
2019-02-25T21:55:48.161Z,90.30
2019-02-25T21:58:18.877Z,90.50
2019-02-25T22:00:48.743Z,90.50
2019-02-25T22:03:21.467Z,90.60
2019-02-25T22:05:53.240Z,90.80
2019-02-25T22:08:24.073Z,90.90
2019-02-25T22:10:53.016Z,91.10
2019-02-25T22:13:22.653Z,91.10
2019-02-25T22:15:51.836Z,91.20
2019-02-25T22:18:20.987Z,91.60
2019-02-25T22:20:51.435Z,91.80
2019-02-25T22:23:22.197Z,91.90
2019-02-25T22:25:52.088Z,92.10
2019-02-25T22:28:21.332Z,92.10
2019-02-25T22:30:51.938Z,92.10
2019-02-25T22:33:27.549Z,92.10
2019-02-25T22:35:52.201Z,92.30
2019-02-25T22:38:21.807Z,92.30
2019-02-25T22:40:52.773Z,92.40
2019-02-25T22:43:21.844Z,92.60
2019-02-25T22:45:50.979Z,92.70
2019-02-25T22:48:21.511Z,92.90
2019-02-25T22:50:53.217Z,93.10
2019-02-25T22:53:21.923Z,93.20
2019-02-25T22:55:52.409Z,93.70
2019-02-25T22:58:22.051Z,94.00
2019-02-25T23:00:54.110Z,94.30
2019-02-25T23:03:25.650Z,93.90
2019-02-25T23:05:55.213Z,93.70
2019-02-25T23:08:25.977Z,93.60
2019-02-25T23:10:55.340Z,93.60
2019-02-25T23:13:25.100Z,93.50
2019-02-25T23:15:55.401Z,93.90
2019-02-25T23:18:25.895Z,94.10
2019-02-25T23:20:57.618Z,94.20
2019-02-25T23:23:28.127Z,94.50
2019-02-25T23:25:58.475Z,94.70
2019-02-25T23:28:28.609Z,94.80
2019-02-25T23:30:58.614Z,94.60
2019-02-25T23:33:27.923Z,94.50
2019-02-25T23:35:57.084Z,94.60
2019-02-25T23:38:26.191Z,94.70
2019-02-25T23:40:55.423Z,94.80
2019-02-25T23:43:24.503Z,95.00
2019-02-25T23:45:53.781Z,95.00
2019-02-25T23:48:26.407Z,95.10
2019-02-25T23:50:55.548Z,95.30
2019-02-25T23:53:26.099Z,95.20
2019-02-25T23:55:56.514Z,95.10
2019-02-25T23:58:26.076Z,95.20
